Time;durP1;ratioP1;P1;durP2;ratioP2;P2;SDS_P1;SDS_P2;PMS_P1;PMS_P2;Temp;Humidity;BMP_temperature;BMP_pressure;BME280_temperature;BME280_humidity;BME280_pressure;Samples;Min_cycle;Max_cycle;Signal;HPM_P1;HPM_P2
2023/09/13 00:01:07;;;;;;;0.73;0.63;;;;;;;18.09;100.00;100050.66;4994031;28;20204;-78
2023/09/13 00:03:34;;;;;;;1.17;1.07;;;;;;;18.14;100.00;100066.91;4994950;28;20289;-80
2023/09/13 00:05:59;;;;;;;1.07;1.00;;;;;;;18.28;100.00;100069.09;4994100;28;20185;-79
2023/09/13 00:08:24;;;;;;;0.20;0.20;;;;;;;18.11;100.00;100072.38;4993836;28;20173;-78
2023/09/13 00:10:50;;;;;;;0.97;0.80;;;;;;;18.02;100.00;100072.63;4994862;28;20288;-78
2023/09/13 00:13:15;;;;;;;0.37;0.37;;;;;;;18.06;100.00;100084.53;4993884;28;20212;-79
2023/09/13 00:15:42;;;;;;;1.57;1.53;;;;;;;17.94;100.00;100082.00;4993901;28;20694;-79
2023/09/13 00:18:08;;;;;;;0.10;0.00;;;;;;;18.16;100.00;100091.41;4995034;28;20682;-79
2023/09/13 00:20:33;;;;;;;0.10;0.10;;;;;;;18.16;100.00;100094.19;4994288;28;20181;-79
2023/09/13 00:22:58;;;;;;;2.30;2.10;;;;;;;18.03;100.00;100081.72;4996661;28;20216;-79
2023/09/13 00:25:24;;;;;;;0.23;0.23;;;;;;;18.10;100.00;100090.16;4996752;28;20187;-79
2023/09/13 00:27:49;;;;;;;1.03;0.93;;;;;;;17.97;100.00;100084.00;4997102;28;20290;-79
2023/09/13 00:30:14;;;;;;;0.43;0.43;;;;;;;18.01;100.00;100084.84;4995696;28;20749;-78
2023/09/13 00:32:39;;;;;;;1.27;1.00;;;;;;;18.08;100.00;100085.00;4996180;28;20207;-79
2023/09/13 00:35:05;;;;;;;0.07;0.00;;;;;;;18.03;100.00;100082.53;4995389;28;20580;-78
2023/09/13 00:37:30;;;;;;;0.10;0.10;;;;;;;18.02;100.00;100094.75;4992713;28;20265;-77
2023/09/13 00:39:56;;;;;;;0.00;0.00;;;;;;;18.29;100.00;100098.34;4993679;28;20185;-77
2023/09/13 00:42:21;;;;;;;0.00;0.00;;;;;;;18.30;100.00;100097.16;4994167;28;20205;-78
2023/09/13 00:44:46;;;;;;;0.00;0.00;;;;;;;18.30;100.00;100097.16;4993763;28;20224;-78
2023/09/13 00:47:12;;;;;;;0.00;0.00;;;;;;;18.43;100.00;100104.09;4993892;28;20651;-77
2023/09/13 00:49:38;;;;;;;0.00;0.00;;;;;;;18.55;100.00;100103.06;4992916;28;20212;-79
2023/09/13 00:52:05;;;;;;;0.63;0.63;;;;;;;18.70;100.00;100117.94;4994153;28;20176;-77
2023/09/13 00:54:30;;;;;;;0.77;0.67;;;;;;;18.66;100.00;100117.06;4992783;28;20177;-78
2023/09/13 00:56:56;;;;;;;0.10;0.10;;;;;;;18.66;100.00;100119.84;4992763;28;20188;-77
2023/09/13 00:59:22;;;;;;;0.00;0.00;;;;;;;18.67;100.00;100127.00;4993516;28;20200;-77
2023/09/13 01:01:47;;;;;;;0.47;0.47;;;;;;;18.65;100.00;100124.56;4993753;28;20208;-78
2023/09/13 01:04:13;;;;;;;0.03;0.03;;;;;;;18.75;100.00;100117.59;4993543;28;20678;-78
2023/09/13 01:06:38;;;;;;;0.00;0.00;;;;;;;18.82;100.00;100105.84;4992158;28;20710;-78
2023/09/13 01:09:04;;;;;;;0.00;0.00;;;;;;;18.83;100.00;100088.88;4992989;28;20603;-78
2023/09/13 01:11:30;;;;;;;1.37;1.27;;;;;;;18.15;100.00;100056.63;4993570;28;20224;-78
2023/09/13 01:13:55;;;;;;;0.30;0.27;;;;;;;18.07;100.00;100044.66;4993293;28;20220;-78
2023/09/13 01:16:41;;;;;;;0.90;0.83;;;;;;;18.10;100.00;100043.94;4992145;28;20184;-78
2023/09/13 01:19:27;;;;;;;0.03;0.03;;;;;;;18.14;100.00;100047.53;4993298;28;20177;-78
2023/09/13 01:22:26;;;;;;;0.00;0.00;;;;;;;18.10;100.00;100051.44;4991763;28;20192;-78
2023/09/13 01:25:45;;;;;;;0.00;0.00;;;;;;;18.31;100.00;100048.19;4993795;28;20181;-78
2023/09/13 01:28:34;;;;;;;0.00;0.00;;;;;;;18.56;100.00;100048.53;4933631;29;20187;-77
2023/09/13 01:31:04;;;;;;;0.00;0.00;;;;;;;18.66;100.00;100050.66;4933483;29;20215;-79
2023/09/13 01:33:29;;;;;;;0.10;0.10;;;;;;;18.72;100.00;100035.34;4989708;28;20217;-77
2023/09/13 01:35:54;;;;;;;0.00;0.00;;;;;;;18.80;100.00;100044.50;4993198;28;20318;-79
2023/09/13 01:38:20;;;;;;;0.00;0.00;;;;;;;18.76;100.00;100027.06;4992518;28;20195;-78
2023/09/13 01:40:48;;;;;;;0.00;0.00;;;;;;;18.69;100.00;100023.06;4991319;28;20177;-78
2023/09/13 01:43:14;;;;;;;0.37;0.37;;;;;;;18.10;100.00;100012.72;4991802;28;20279;-79
2023/09/13 01:45:40;;;;;;;0.13;0.13;;;;;;;17.90;100.00;100014.78;4993114;28;20208;-78
2023/09/13 01:48:07;;;;;;;0.00;0.00;;;;;;;18.01;100.00;100028.78;4991784;28;20187;-77
2023/09/13 01:50:34;;;;;;;0.00;0.00;;;;;;;18.22;100.00;100048.44;4992253;28;20229;-78
2023/09/13 01:53:03;;;;;;;0.00;0.00;;;;;;;18.48;100.00;100055.13;4993055;28;20220;-78
2023/09/13 01:55:29;;;;;;;0.00;0.00;;;;;;;18.56;100.00;100051.31;4993130;28;20177;-77
2023/09/13 01:57:55;;;;;;;0.00;0.00;;;;;;;18.65;100.00;100036.03;4991595;28;20801;-78
2023/09/13 02:00:20;;;;;;;0.00;0.00;;;;;;;18.80;100.00;100039.78;4990592;28;20272;-78
2023/09/13 02:02:45;;;;;;;0.00;0.00;;;;;;;18.90;100.00;100032.78;4992815;28;20201;-79
2023/09/13 02:05:11;;;;;;;0.00;0.00;;;;;;;18.91;100.00;100026.84;4992800;28;20181;-78
2023/09/13 02:07:36;;;;;;;0.00;0.00;;;;;;;18.95;100.00;100030.50;4991709;28;20181;-78
2023/09/13 02:10:02;;;;;;;0.00;0.00;;;;;;;18.99;100.00;100023.00;4991166;28;20205;-78
2023/09/13 02:12:27;;;;;;;0.00;0.00;;;;;;;19.05;100.00;100020.69;4991686;28;20299;-78
2023/09/13 02:14:53;;;;;;;0.00;0.00;;;;;;;19.00;100.00;100012.72;4992834;28;20192;-77
2023/09/13 02:17:18;;;;;;;0.10;0.10;;;;;;;19.08;100.00;100011.63;4991997;28;20185;-77
2023/09/13 02:19:48;;;;;;;0.20;0.20;;;;;;;18.88;100.00;100011.00;4992700;28;20177;-77
2023/09/13 02:22:13;;;;;;;0.93;0.93;;;;;;;18.67;100.00;100006.03;4992959;28;20192;-78
2023/09/13 02:24:38;;;;;;;0.00;0.00;;;;;;;18.61;100.00;100015.00;4993088;28;20189;-78
2023/09/13 02:27:04;;;;;;;0.00;0.00;;;;;;;18.63;100.00;100024.53;4991963;28;20701;-78
2023/09/13 02:29:29;;;;;;;0.20;0.20;;;;;;;18.60;100.00;100028.03;4992746;28;20753;-78
2023/09/13 02:31:54;;;;;;;0.00;0.00;;;;;;;18.60;100.00;100032.78;4992929;28;20268;-78
2023/09/13 02:34:20;;;;;;;0.20;0.20;;;;;;;18.58;100.00;100032.34;4992796;28;20201;-78
2023/09/13 02:36:45;;;;;;;0.00;0.00;;;;;;;18.55;100.00;100024.81;4993358;28;20185;-78
2023/09/13 02:39:29;;;;;;;0.73;0.73;;;;;;;18.58;100.00;100043.41;4992611;28;20188;-78
2023/09/13 02:41:54;;;;;;;0.37;0.37;;;;;;;18.50;100.00;100044.47;4991551;28;20258;-78
2023/09/13 02:44:20;;;;;;;0.10;0.10;;;;;;;18.49;100.00;100053.97;4993888;28;20264;-79
2023/09/13 02:46:45;;;;;;;1.30;1.00;;;;;;;18.44;100.00;100060.63;4995396;28;20185;-79
2023/09/13 02:49:10;;;;;;;1.50;0.90;;;;;;;18.41;100.00;100062.19;4993255;28;20687;-79
2023/09/13 02:51:36;;;;;;;0.00;0.00;;;;;;;18.47;100.00;100070.13;4994354;28;20193;-79
2023/09/13 02:54:01;;;;;;;1.03;1.03;;;;;;;18.46;100.00;100068.53;4994783;28;20208;-79
2023/09/13 02:56:26;;;;;;;0.00;0.00;;;;;;;18.45;100.00;100070.50;4995317;28;20311;-79
2023/09/13 02:58:51;;;;;;;0.00;0.00;;;;;;;18.44;100.00;100066.94;4993420;28;20189;-79
2023/09/13 03:01:17;;;;;;;0.00;0.00;;;;;;;18.45;100.00;100076.03;4995220;28;20534;-79
2023/09/13 03:03:42;;;;;;;0.00;0.00;;;;;;;18.48;100.00;100074.50;4993831;28;20295;-79
2023/09/13 03:06:18;;;;;;;0.20;0.00;;;;;;;18.40;100.00;100070.84;4993934;28;20185;-79
2023/09/13 03:08:43;;;;;;;0.00;0.00;;;;;;;18.42;100.00;100072.06;4993042;28;20197;-79
2023/09/13 03:11:10;;;;;;;0.20;0.20;;;;;;;18.42;100.00;100074.03;4994201;28;20208;-79
2023/09/13 03:13:36;;;;;;;0.00;0.00;;;;;;;18.32;100.00;100081.00;4997704;28;20583;-79
2023/09/13 03:16:01;;;;;;;0.67;0.67;;;;;;;18.34;100.00;100075.88;4997745;28;20252;-79
2023/09/13 03:18:26;;;;;;;0.13;0.13;;;;;;;18.39;100.00;100081.13;4997706;28;20185;-79
2023/09/13 03:20:52;;;;;;;0.10;0.10;;;;;;;18.39;100.00;100081.13;4997371;28;20255;-79
2023/09/13 03:23:17;;;;;;;0.20;0.20;;;;;;;18.41;100.00;100077.97;4997374;28;20233;-78
2023/09/13 03:25:42;;;;;;;1.07;0.77;;;;;;;18.38;100.00;100085.06;4997563;28;20192;-79
2023/09/13 03:28:07;;;;;;;1.70;1.60;;;;;;;18.25;100.00;100089.19;4996155;28;20185;-79
2023/09/13 03:30:34;;;;;;;5.00;1.77;;;;;;;18.27;100.00;100097.91;4996817;28;20269;-79
2023/09/13 03:32:59;;;;;;;0.73;0.30;;;;;;;18.23;100.00;100088.78;4996432;28;20241;-78
2023/09/13 03:35:25;;;;;;;1.60;1.50;;;;;;;18.23;100.00;100096.28;4996912;28;20610;-78
2023/09/13 03:37:50;;;;;;;1.03;1.03;;;;;;;18.22;100.00;100097.41;4996967;28;20553;-79
2023/09/13 03:40:16;;;;;;;0.50;0.47;;;;;;;18.23;100.00;100102.59;4995329;28;20189;-78
2023/09/13 03:42:41;;;;;;;2.57;2.33;;;;;;;18.18;100.00;100099.34;4995974;28;20213;-79
2023/09/13 03:45:07;;;;;;;2.23;1.73;;;;;;;18.16;100.00;100091.41;4996940;28;20192;-79
2023/09/13 03:47:32;;;;;;;0.87;0.87;;;;;;;18.18;100.00;100097.38;4994706;28;20276;-78
2023/09/13 03:49:57;;;;;;;1.47;1.37;;;;;;;18.19;100.00;100103.69;4993204;28;20264;-77
2023/09/13 03:52:23;;;;;;;2.37;2.10;;;;;;;18.18;100.00;100105.66;4995001;28;20205;-77
2023/09/13 03:54:48;;;;;;;3.07;2.80;;;;;;;18.15;100.00;100103.66;4995107;28;20274;-77
2023/09/13 03:57:13;;;;;;;7.13;3.57;;;;;;;18.11;100.00;100100.03;4995165;28;20188;-78
2023/09/13 03:59:38;;;;;;;1.30;1.27;;;;;;;18.07;100.00;100102.72;4994445;28;20196;-77
2023/09/13 04:02:04;;;;;;;5.63;3.83;;;;;;;18.02;100.00;100110.53;4993645;28;20270;-77
2023/09/13 04:04:29;;;;;;;11.10;3.37;;;;;;;17.95;100.00;100115.97;4995113;28;20185;-77
2023/09/13 04:06:54;;;;;;;5.00;2.47;;;;;;;17.89;100.00;100111.88;4993670;28;20191;-78
2023/09/13 04:09:21;;;;;;;1.13;1.13;;;;;;;17.77;100.00;100112.88;4993388;28;20205;-77
2023/09/13 04:11:46;;;;;;;1.40;1.30;;;;;;;17.84;100.00;100113.00;4993550;28;20251;-78
2023/09/13 04:14:12;;;;;;;2.93;2.77;;;;;;;17.82;100.00;100118.91;4994666;28;20240;-78
2023/09/13 04:16:37;;;;;;;1.90;1.80;;;;;;;17.78;100.00;100109.72;4993370;28;20250;-77
2023/09/13 04:19:02;;;;;;;2.00;1.90;;;;;;;17.78;100.00;100118.03;4994203;28;20212;-78
2023/09/13 04:21:28;;;;;;;0.67;0.67;;;;;;;17.80;100.00;100118.47;4993314;28;20195;-78
2023/09/13 04:23:54;;;;;;;4.50;1.40;;;;;;;17.77;100.00;100110.09;4993625;28;20209;-77
2023/09/13 04:26:21;;;;;;;1.60;1.50;;;;;;;17.75;100.00;100106.91;4993408;28;20189;-78
2023/09/13 04:28:47;;;;;;;0.53;0.53;;;;;;;17.63;100.00;100102.31;4993977;28;20188;-77
2023/09/13 04:31:12;;;;;;;3.87;3.57;;;;;;;17.55;100.00;100112.47;4993175;28;20194;-77
2023/09/13 04:33:53;;;;;;;1.67;1.57;;;;;;;17.54;100.00;100110.06;4993015;28;20559;-78
2023/09/13 04:36:19;;;;;;;0.73;0.73;;;;;;;17.50;100.00;100112.78;4993469;28;20651;-77
2023/09/13 04:38:46;;;;;;;2.03;1.93;;;;;;;17.53;100.00;100122.28;4994104;28;20221;-78
2023/09/13 04:41:15;;;;;;;2.60;2.40;;;;;;;17.52;100.00;100120.69;4994262;28;20177;-77
2023/09/13 04:43:41;;;;;;;3.00;2.80;;;;;;;17.46;100.00;100111.09;4993924;28;20219;-77
2023/09/13 04:46:06;;;;;;;1.90;1.80;;;;;;;17.41;100.00;100114.16;4994080;28;20691;-77
2023/09/13 04:48:32;;;;;;;2.77;2.43;;;;;;;17.40;100.00;100118.09;4992746;28;20264;-77
2023/09/13 04:50:57;;;;;;;1.40;1.40;;;;;;;17.44;100.00;100119.75;4992116;28;20217;-79
2023/09/13 04:53:22;;;;;;;0.93;0.93;;;;;;;17.43;100.00;100109.06;4993990;28;20247;-77
2023/09/13 04:55:48;;;;;;;1.70;1.60;;;;;;;17.46;100.00;100108.31;4993836;28;20246;-78
2023/09/13 04:58:13;;;;;;;3.63;2.10;;;;;;;17.41;100.00;100103.09;4993755;28;20192;-78
2023/09/13 05:00:38;;;;;;;1.80;1.70;;;;;;;17.44;100.00;100102.38;4993001;28;20185;-78
2023/09/13 05:03:04;;;;;;;7.20;3.63;;;;;;;17.45;100.00;100112.25;4989654;28;20582;-78
2023/09/13 05:05:29;;;;;;;3.00;2.80;;;;;;;17.56;100.00;100113.25;4991907;28;20199;-78
2023/09/13 05:07:54;;;;;;;2.07;1.90;;;;;;;17.41;100.00;100098.38;4994061;28;20647;-79
2023/09/13 05:10:20;;;;;;;1.80;1.70;;;;;;;17.58;100.00;100108.16;4998036;28;20204;-79
2023/09/13 05:12:49;;;;;;;3.83;3.53;;;;;;;17.53;100.00;100111.25;4996964;28;20719;-78
2023/09/13 05:15:14;;;;;;;1.27;1.13;;;;;;;17.53;100.00;100103.75;4994065;28;20231;-79
2023/09/13 05:17:40;;;;;;;2.60;2.40;;;;;;;17.54;100.00;100102.59;4990920;28;20188;-79
2023/09/13 05:20:06;;;;;;;2.60;2.40;;;;;;;17.51;100.00;100113.56;4987479;28;20170;-79
2023/09/13 05:22:32;;;;;;;2.30;2.10;;;;;;;17.56;100.00;100110.50;4984955;28;20733;-80
2023/09/13 05:24:58;;;;;;;8.87;3.43;;;;;;;17.58;100.00;100118.41;4991511;28;20212;-79
2023/09/13 05:27:23;;;;;;;1.43;1.33;;;;;;;17.64;100.00;100114.97;4999062;28;20173;-79
2023/09/13 05:29:49;;;;;;;1.30;0.93;;;;;;;17.72;100.00;100121.47;4997820;28;20208;-80
2023/09/13 05:32:14;;;;;;;1.30;1.27;;;;;;;17.76;100.00;100125.09;4999793;28;20224;-79
2023/09/13 05:34:39;;;;;;;1.00;0.93;;;;;;;17.83;100.00;100131.56;4998343;28;20554;-80
2023/09/13 05:37:05;;;;;;;0.63;0.63;;;;;;;17.82;100.00;100115.34;4999191;28;20640;-80
2023/09/13 05:39:30;;;;;;;1.47;1.47;;;;;;;17.83;100.00;100116.94;4996657;28;20267;-79
2023/09/13 05:41:55;;;;;;;0.90;0.90;;;;;;;17.85;100.00;100111.84;4992797;28;20181;-80
2023/09/13 05:44:23;;;;;;;1.77;1.67;;;;;;;17.87;100.00;100117.78;4991652;28;20236;-79
2023/09/13 05:46:48;;;;;;;1.50;1.50;;;;;;;17.90;100.00;100119.00;4988583;28;20281;-80
2023/09/13 05:49:13;;;;;;;2.53;2.27;;;;;;;17.97;100.00;100113.63;4987042;28;20213;-80
2023/09/13 05:51:39;;;;;;;0.37;0.33;;;;;;;18.02;100.00;100118.84;4983744;28;20190;-78
2023/09/13 05:54:04;;;;;;;0.57;0.57;;;;;;;18.08;100.00;100120.94;4985879;28;20209;-80
2023/09/13 05:56:29;;;;;;;2.73;2.53;;;;;;;18.02;100.00;100116.88;4986696;28;20185;-79
2023/09/13 05:58:55;;;;;;;2.73;2.20;;;;;;;18.02;100.00;100124.34;4985025;28;20181;-78
2023/09/13 06:01:20;;;;;;;1.60;1.50;;;;;;;17.97;100.00;100130.22;4997580;28;20173;-80
2023/09/13 06:03:45;;;;;;;2.40;2.20;;;;;;;18.03;100.00;100137.00;4991133;28;20267;-80
2023/09/13 06:06:11;;;;;;;3.37;3.07;;;;;;;17.99;100.00;100141.69;4985307;28;20176;-79
2023/09/13 06:08:36;;;;;;;1.63;1.33;;;;;;;18.05;100.00;100143.78;4984202;28;20268;-78
2023/09/13 06:11:01;;;;;;;3.10;2.90;;;;;;;18.06;100.00;100153.66;4985779;28;20202;-79
2023/09/13 06:13:27;;;;;;;8.30;3.10;;;;;;;18.10;100.00;100157.31;4976796;28;20619;-79
2023/09/13 06:15:52;;;;;;;2.00;1.90;;;;;;;18.23;100.00;100157.91;4987606;28;20181;-80
2023/09/13 06:18:17;;;;;;;1.10;1.10;;;;;;;18.28;100.00;100168.66;4988446;28;20209;-79
2023/09/13 06:20:43;;;;;;;2.33;1.93;;;;;;;18.24;100.00;100167.81;4987656;28;20751;-78
2023/09/13 06:23:32;;;;;;;1.50;1.40;;;;;;;18.33;100.00;100171.09;4981841;28;20228;-79
2023/09/13 06:25:57;;;;;;;2.37;1.87;;;;;;;18.36;100.00;100175.88;4985364;28;20209;-80
2023/09/13 06:28:23;;;;;;;2.90;2.70;;;;;;;18.39;100.00;100175.16;4983797;28;20204;-78
2023/09/13 06:30:48;;;;;;;3.53;2.63;;;;;;;18.41;100.00;100183.88;4976764;28;20704;-78
2023/09/13 06:33:14;;;;;;;4.00;3.70;;;;;;;18.30;100.00;100187.66;4983838;28;20293;-80
2023/09/13 06:35:39;;;;;;;2.47;2.27;;;;;;;18.31;100.00;100183.72;4977274;28;20186;-79
2023/09/13 06:38:05;;;;;;;1.00;1.00;;;;;;;18.34;100.00;100194.81;4983150;28;20185;-78
2023/09/13 06:40:30;;;;;;;0.03;0.03;;;;;;;18.43;100.00;100200.91;4980915;28;20652;-80
2023/09/13 06:42:55;;;;;;;1.50;1.40;;;;;;;18.53;100.00;100191.19;4988441;28;20205;-79
2023/09/13 06:45:20;;;;;;;1.07;0.97;;;;;;;18.59;100.00;100199.97;4985772;28;20267;-77
2023/09/13 06:47:46;;;;;;;0.20;0.17;;;;;;;18.69;100.00;100205.72;4989787;28;20208;-77
2023/09/13 06:50:12;;;;;;;1.67;1.57;;;;;;;18.82;100.00;100209.06;4985361;28;20205;-79
2023/09/13 06:52:37;;;;;;;0.20;0.17;;;;;;;18.88;100.00;100213.09;4981026;28;20193;-78
2023/09/13 06:55:03;;;;;;;1.30;1.30;;;;;;;18.91;100.00;100203.25;4988023;28;20733;-79
2023/09/13 06:57:28;;;;;;;19.23;1.03;;;;;;;19.01;100.00;100216.44;4990201;28;20717;-78
2023/09/13 06:59:54;;;;;;;1.03;0.70;;;;;;;19.06;100.00;100215.31;4995325;28;20260;-81
2023/09/13 07:02:20;;;;;;;0.97;0.97;;;;;;;19.00;100.00;100210.13;4997187;28;20581;-82
2023/09/13 07:04:45;;;;;;;0.30;0.30;;;;;;;18.95;100.00;100201.31;4990093;28;20265;-77
2023/09/13 07:07:11;;;;;;;1.30;0.83;;;;;;;18.93;100.00;100209.19;4995545;28;20267;-77
2023/09/13 07:09:37;;;;;;;0.93;0.93;;;;;;;18.93;100.00;100217.50;4993271;28;20687;-78
2023/09/13 07:12:03;;;;;;;0.30;0.30;;;;;;;19.04;100.00;100221.25;4995482;28;20185;-78
2023/09/13 07:14:28;;;;;;;0.33;0.33;;;;;;;19.03;100.00;100220.44;4994073;28;20184;-79
2023/09/13 07:16:53;;;;;;;0.37;0.37;;;;;;;19.07;100.00;100223.25;4994323;28;20193;-78
2023/09/13 07:19:18;;;;;;;0.23;0.23;;;;;;;19.10;100.00;100224.50;4993648;28;20256;-78
2023/09/13 07:21:44;;;;;;;0.67;0.67;;;;;;;19.10;100.00;100227.28;4994162;28;20208;-76
2023/09/13 07:24:12;;;;;;;1.20;1.20;;;;;;;19.12;100.00;100213.84;4994077;28;20205;-77
2023/09/13 07:26:37;;;;;;;0.70;0.70;;;;;;;19.13;100.00;100232.84;4994237;28;20177;-77
2023/09/13 07:29:03;;;;;;;1.30;1.20;;;;;;;19.12;100.00;100227.69;4994773;28;20187;-77
2023/09/13 07:31:28;;;;;;;0.40;0.40;;;;;;;19.11;100.00;100226.91;4995274;28;20212;-81
2023/09/13 07:33:53;;;;;;;3.67;0.87;;;;;;;19.13;100.00;100223.75;4993790;28;20216;-81
2023/09/13 07:36:19;;;;;;;0.40;0.40;;;;;;;19.09;100.00;100228.41;4990392;28;20635;-77
2023/09/13 07:38:44;;;;;;;0.40;0.40;;;;;;;19.05;100.00;100233.91;4996506;28;20692;-78
2023/09/13 07:41:09;;;;;;;0.87;0.87;;;;;;;19.02;100.00;100238.22;4998155;28;20184;-79
2023/09/13 07:43:35;;;;;;;2.23;2.03;;;;;;;18.98;100.00;100234.63;5000414;28;20265;-78
2023/09/13 07:46:01;;;;;;;0.33;0.33;;;;;;;19.09;100.00;100239.50;4998355;28;20201;-83
2023/09/13 07:48:27;;;;;;;0.33;0.33;;;;;;;19.19;100.00;100247.97;4995328;28;20181;-83
2023/09/13 07:50:52;;;;;;;1.10;1.00;;;;;;;19.09;100.00;100243.06;4996065;28;20244;-79
2023/09/13 07:53:18;;;;;;;0.00;0.00;;;;;;;19.03;100.00;100245.38;4998798;28;20205;-78
2023/09/13 07:55:43;;;;;;;1.20;1.17;;;;;;;19.02;100.00;100242.97;4997657;28;20177;-78
2023/09/13 07:58:08;;;;;;;1.23;1.17;;;;;;;18.99;100.00;100241.75;4996773;28;20177;-79
2023/09/13 08:00:34;;;;;;;0.77;0.77;;;;;;;19.06;100.00;100245.78;4997904;28;20308;-78
2023/09/13 08:03:01;;;;;;;0.20;0.20;;;;;;;19.24;100.00;100255.97;4994256;28;20216;-78
2023/09/13 08:05:27;;;;;;;2.13;2.03;;;;;;;19.27;100.00;100257.97;4996945;28;20192;-78
2023/09/13 08:07:53;;;;;;;0.77;0.77;;;;;;;19.41;100.00;100251.84;4997785;28;20176;-79
2023/09/13 08:10:18;;;;;;;0.00;0.00;;;;;;;19.62;100.00;100256.88;4997607;28;20189;-79
2023/09/13 08:12:43;;;;;;;0.77;0.77;;;;;;;19.72;100.00;100272.03;4997810;28;20208;-78
2023/09/13 08:15:09;;;;;;;0.33;0.33;;;;;;;19.68;100.00;100269.25;4997801;28;20207;-79
2023/09/13 08:17:34;;;;;;;1.73;1.63;;;;;;;19.56;100.00;100261.97;4997123;28;20177;-78
2023/09/13 08:20:01;;;;;;;0.63;0.63;;;;;;;19.59;100.00;100269.50;4996923;28;20236;-79
2023/09/13 08:22:27;;;;;;;0.47;0.30;;;;;;;19.53;100.00;100259.13;4996070;28;20220;-78
2023/09/13 08:24:53;;;;;;;1.30;1.30;;;;;;;19.63;100.00;100263.22;4996950;28;20181;-79
2023/09/13 08:27:18;;;;;;;1.17;0.63;;;;;;;19.68;100.00;100262.91;4995729;28;20177;-78
2023/09/13 08:29:44;;;;;;;0.23;0.23;;;;;;;19.75;100.00;100274.06;4995336;28;20220;-78
2023/09/13 08:32:09;;;;;;;0.40;0.40;;;;;;;19.83;100.00;100264.66;4997756;28;20227;-78
2023/09/13 08:34:35;;;;;;;0.27;0.27;;;;;;;19.87;100.00;100266.28;4997586;28;20185;-79
2023/09/13 08:37:00;;;;;;;1.17;1.13;;;;;;;19.86;100.00;100263.91;4996103;28;20196;-79
2023/09/13 08:39:26;;;;;;;0.00;0.00;;;;;;;19.98;100.00;100277.50;4996138;28;20260;-78
2023/09/13 08:41:53;;;;;;;1.03;1.03;;;;;;;20.02;100.00;100277.53;4996780;28;20603;-79
2023/09/13 08:44:22;;;;;;;0.63;0.63;;;;;;;20.10;100.00;100276.44;4994908;28;20201;-79
2023/09/13 08:46:55;;;;;;;2.27;2.10;;;;;;;20.23;100.00;100291.63;4996525;28;20640;-78
2023/09/13 08:49:21;;;;;;;0.40;0.40;;;;;;;20.13;100.00;100282.03;4994538;28;20235;-78
2023/09/13 08:51:47;;;;;;;1.70;1.27;;;;;;;20.29;100.00;100281.00;4995001;28;20193;-77
2023/09/13 08:54:13;;;;;;;2.70;2.57;;;;;;;20.15;100.00;100281.66;4995575;28;20205;-78
2023/09/13 08:56:42;;;;;;;3.30;3.10;;;;;;;20.17;100.00;100288.41;4995382;28;20181;-78
2023/09/13 08:59:14;;;;;;;2.83;2.63;;;;;;;20.28;100.00;100284.97;4993035;28;20192;-77
2023/09/13 09:01:46;;;;;;;1.73;1.63;;;;;;;20.34;100.00;100281.44;4992824;28;20581;-79
2023/09/13 09:04:14;;;;;;;1.47;1.37;;;;;;;20.49;99.99;100287.97;4995014;28;20576;-78
2023/09/13 09:06:39;;;;;;;3.07;2.87;;;;;;;20.46;99.55;100277.63;4993811;28;20190;-78
2023/09/13 09:09:05;;;;;;;0.90;0.90;;;;;;;20.55;100.00;100288.44;4992865;28;20177;-76
2023/09/13 09:11:32;;;;;;;1.93;1.80;;;;;;;20.57;98.79;100284.09;4993044;28;20200;-77
2023/09/13 09:13:59;;;;;;;0.97;0.87;;;;;;;20.65;97.17;100280.19;4992973;28;20212;-77
2023/09/13 09:16:26;;;;;;;0.63;0.63;;;;;;;20.87;97.14;100283.16;4990453;28;20289;-77
2023/09/13 09:18:53;;;;;;;2.30;1.63;;;;;;;20.75;95.76;100281.47;4990833;28;20200;-77
2023/09/13 09:21:19;;;;;;;1.50;1.43;;;;;;;20.70;94.30;100279.03;4991533;28;20169;-78
2023/09/13 09:23:44;;;;;;;1.60;1.50;;;;;;;20.74;94.14;100277.09;4992523;28;20205;-77
2023/09/13 09:26:10;;;;;;;0.67;0.67;;;;;;;20.96;93.78;100283.59;4994982;28;20185;-78
2023/09/13 09:28:36;;;;;;;0.00;0.00;;;;;;;21.23;94.30;100292.50;4993233;28;20774;-78
2023/09/13 09:31:05;;;;;;;1.43;1.33;;;;;;;21.14;91.86;100272.63;4989980;28;20275;-77
2023/09/13 09:33:31;;;;;;;1.13;1.07;;;;;;;21.04;91.78;100279.69;4992943;28;20204;-77
2023/09/13 09:36:01;;;;;;;2.47;2.27;;;;;;;20.95;92.04;100270.88;4991464;28;20265;-77
2023/09/13 09:38:28;;;;;;;0.77;0.77;;;;;;;20.87;92.39;100269.25;4991451;28;20196;-76
2023/09/13 09:40:59;;;;;;;1.17;1.17;;;;;;;20.90;92.73;100282.38;4991114;28;20678;-77
2023/09/13 09:43:25;;;;;;;1.17;1.07;;;;;;;20.97;93.86;100279.63;4992845;28;20215;-77
2023/09/13 09:45:50;;;;;;;1.30;1.20;;;;;;;20.95;92.59;100277.25;4991589;28;20185;-77
2023/09/13 09:48:15;;;;;;;0.13;0.13;;;;;;;21.04;92.08;100277.72;4993031;28;20181;-77
2023/09/13 09:50:46;;;;;;;0.73;0.73;;;;;;;21.06;91.69;100271.75;4990895;28;20241;-77
2023/09/13 09:53:13;;;;;;;1.53;1.43;;;;;;;21.18;92.54;100282.56;4992776;28;20200;-76
2023/09/13 09:55:40;;;;;;;2.27;2.07;;;;;;;21.30;91.40;100276.72;4991347;28;20177;-77
2023/09/13 09:58:05;;;;;;;1.50;1.40;;;;;;;21.31;90.99;100281.09;4992811;28;20235;-78
2023/09/13 10:00:43;;;;;;;0.70;0.70;;;;;;;21.25;90.82;100271.50;4991030;28;20185;-78
2023/09/13 10:03:08;;;;;;;1.30;0.77;;;;;;;21.31;90.97;100269.97;4992103;28;20318;-77
2023/09/13 10:05:50;;;;;;;2.00;1.83;;;;;;;21.31;90.72;100275.53;4994470;28;20207;-78
2023/09/13 10:08:15;;;;;;;1.30;1.20;;;;;;;21.26;89.67;100269.53;4994677;28;20273;-78
2023/09/13 10:10:40;;;;;;;1.83;0.80;;;;;;;21.43;89.33;100262.50;4993658;28;20679;-78
2023/09/13 10:13:05;;;;;;;1.73;1.63;;;;;;;21.57;88.73;100266.16;4994123;28;20236;-78
2023/09/13 10:15:32;;;;;;;2.37;2.10;;;;;;;21.74;87.25;100274.97;4993092;28;20674;-78
2023/09/13 10:18:01;;;;;;;2.10;1.40;;;;;;;22.05;88.54;100287.38;4994221;28;20243;-78
2023/09/13 10:20:28;;;;;;;0.93;0.93;;;;;;;21.98;87.87;100282.56;4992254;28;20173;-79
2023/09/13 10:22:56;;;;;;;2.90;2.60;;;;;;;22.14;88.15;100282.28;4996730;28;20263;-78
2023/09/13 10:25:23;;;;;;;2.40;2.20;;;;;;;22.19;86.40;100276.31;4998166;28;20260;-78
2023/09/13 10:27:50;;;;;;;2.27;2.17;;;;;;;22.21;85.64;100296.19;4998122;28;20209;-79
2023/09/13 10:30:24;;;;;;;1.67;1.57;;;;;;;22.26;85.22;100290.22;4996313;28;20697;-77
2023/09/13 10:32:56;;;;;;;2.23;1.70;;;;;;;22.39;85.66;100294.25;4996284;28;20271;-79
2023/09/13 10:35:22;;;;;;;1.40;1.30;;;;;;;22.20;85.82;100289.03;4997752;28;20200;-78
2023/09/13 10:37:55;;;;;;;0.70;0.70;;;;;;;22.17;88.29;100301.75;4996144;28;20180;-78
2023/09/13 10:40:28;;;;;;;0.40;0.37;;;;;;;21.80;89.81;100288.06;4996230;28;20223;-78
2023/09/13 10:42:54;;;;;;;0.00;0.00;;;;;;;21.50;90.98;100287.53;4997619;28;20205;-78
2023/09/13 10:45:22;;;;;;;0.27;0.27;;;;;;;21.21;92.62;100292.09;4997591;28;20200;-78
2023/09/13 10:47:50;;;;;;;0.00;0.00;;;;;;;21.01;94.12;100299.91;4997531;28;20185;-78
2023/09/13 10:50:16;;;;;;;0.17;0.10;;;;;;;20.78;95.99;100300.13;4995226;28;20208;-78
2023/09/13 10:52:43;;;;;;;0.00;0.00;;;;;;;20.69;98.99;100308.78;4997011;28;20197;-79
2023/09/13 10:55:10;;;;;;;0.00;0.00;;;;;;;20.66;100.00;100319.84;4997016;28;20169;-78
2023/09/13 10:57:37;;;;;;;0.20;0.20;;;;;;;20.19;100.00;100324.09;4997199;28;20259;-79
2023/09/13 11:00:10;;;;;;;0.00;0.00;;;;;;;20.00;100.00;100322.31;4993197;28;20185;-79
2023/09/13 11:02:36;;;;;;;0.30;0.27;;;;;;;20.15;100.00;100335.16;4996969;28;20201;-78
2023/09/13 11:05:03;;;;;;;0.00;0.00;;;;;;;20.13;100.00;100339.50;4997295;28;20275;-78
2023/09/13 11:07:28;;;;;;;0.40;0.37;;;;;;;19.89;100.00;100338.00;4995924;28;20185;-78
2023/09/13 11:10:03;;;;;;;0.50;0.50;;;;;;;19.99;100.00;100354.00;4996449;28;20197;-78
2023/09/13 11:12:29;;;;;;;0.50;0.50;;;;;;;19.65;100.00;100338.47;4991382;28;20291;-77
2023/09/13 11:14:54;;;;;;;0.30;0.30;;;;;;;19.70;100.00;100347.28;4997067;28;20687;-78
2023/09/13 11:17:38;;;;;;;0.87;0.87;;;;;;;19.84;100.00;100360.53;4996788;28;20181;-81